ΕΜΥ, Εθνική Μετεωρολογική Υπηρεσία - Δελτία Καιρού, Προγνώσεις

ΑΕΡΟΝΑΥΤΙΛΙΑ

GREEK AIRPORTS CODES

LGSM 160850Z 02010KT CAVOK 30/20 Q1011=

EUROPEAN AIRPORTS CODES

TAF LGEL 160500Z 1606/1706 VRB05KT 9999 FEW030 BECMG 1607/1609 19013KT BECMG 1616/1618 VRB05KT=